createdAt,value
2023-08-29T00:01:38.690Z,12.70
2023-08-29T00:04:05.596Z,12.70
2023-08-29T00:06:32.374Z,12.70
2023-08-29T00:08:59.071Z,12.70
2023-08-29T00:11:25.789Z,12.70
2023-08-29T00:13:53.916Z,12.80
2023-08-29T00:16:20.767Z,12.70
2023-08-29T00:18:47.495Z,12.70
2023-08-29T00:21:14.190Z,12.80
2023-08-29T00:23:40.921Z,12.70
2023-08-29T00:26:07.567Z,12.70
2023-08-29T00:28:34.320Z,12.70
2023-08-29T00:31:01.010Z,12.70
2023-08-29T00:33:27.668Z,12.70
2023-08-29T00:35:54.359Z,12.60
2023-08-29T00:38:21.044Z,12.70
2023-08-29T00:40:47.762Z,12.60
2023-08-29T00:43:14.448Z,12.60
2023-08-29T00:45:41.625Z,12.60
2023-08-29T00:48:09.952Z,12.60
2023-08-29T00:50:37.147Z,12.60
2023-08-29T00:53:06.434Z,12.60
2023-08-29T00:55:35.618Z,12.60
2023-08-29T00:58:04.182Z,12.60
2023-08-29T01:00:32.324Z,12.60
2023-08-29T01:03:00.382Z,12.70
2023-08-29T01:05:29.329Z,12.60
2023-08-29T01:08:00.953Z,12.60
2023-08-29T01:10:58.186Z,12.50
2023-08-29T01:13:34.893Z,12.60
2023-08-29T01:16:06.422Z,12.60
2023-08-29T01:18:35.255Z,12.60
2023-08-29T01:21:31.011Z,12.60
2023-08-29T01:24:24.316Z,12.60
2023-08-29T01:26:51.992Z,12.60
2023-08-29T01:29:19.349Z,12.60
2023-08-29T01:31:47.065Z,12.60
2023-08-29T01:34:14.009Z,12.60
2023-08-29T01:36:44.619Z,12.60
2023-08-29T01:39:11.620Z,12.70
2023-08-29T01:41:38.396Z,12.60
2023-08-29T01:44:06.320Z,12.70
2023-08-29T01:46:33.156Z,12.70
2023-08-29T01:49:02.900Z,12.60
2023-08-29T01:51:30.059Z,12.60
2023-08-29T01:53:57.959Z,12.60
2023-08-29T01:56:28.593Z,12.70
2023-08-29T01:58:55.909Z,12.60
2023-08-29T02:01:24.116Z,12.70
2023-08-29T02:03:51.821Z,12.60
2023-08-29T02:06:18.616Z,12.70
2023-08-29T02:08:45.855Z,12.70
2023-08-29T02:11:12.629Z,12.70
2023-08-29T02:13:39.505Z,12.70
2023-08-29T02:16:06.154Z,12.70
2023-08-29T02:18:32.866Z,12.70
2023-08-29T02:20:59.558Z,12.70
2023-08-29T02:23:26.559Z,12.70
2023-08-29T02:26:06.490Z,12.70
2023-08-29T02:28:37.601Z,12.70
2023-08-29T02:31:08.650Z,12.70
2023-08-29T02:33:37.202Z,12.70
2023-08-29T02:36:07.589Z,12.80
2023-08-29T02:38:35.101Z,12.80
2023-08-29T02:41:01.848Z,12.70
2023-08-29T02:43:29.296Z,12.80
2023-08-29T02:45:56.439Z,12.90
2023-08-29T02:48:23.392Z,12.90
2023-08-29T02:50:50.171Z,12.80
2023-08-29T02:53:21.148Z,12.70
2023-08-29T02:55:50.875Z,12.70
2023-08-29T02:58:17.538Z,12.80
2023-08-29T03:00:44.596Z,12.80
2023-08-29T03:03:14.657Z,12.80
2023-08-29T03:05:43.374Z,12.80
2023-08-29T03:08:10.150Z,12.90
2023-08-29T03:10:40.099Z,12.80
2023-08-29T03:13:06.817Z,12.70
2023-08-29T03:15:34.531Z,12.70
2023-08-29T03:18:01.572Z,12.70
2023-08-29T03:20:28.512Z,12.70
2023-08-29T03:22:55.199Z,12.70
2023-08-29T03:25:23.143Z,12.60
2023-08-29T03:27:50.722Z,12.60
2023-08-29T03:30:17.558Z,12.60
2023-08-29T03:32:44.514Z,12.60
2023-08-29T03:35:12.206Z,12.50
2023-08-29T03:37:41.026Z,12.50
2023-08-29T03:40:08.717Z,12.50
2023-08-29T03:42:35.400Z,12.50
2023-08-29T03:45:02.275Z,12.40
2023-08-29T03:47:29.184Z,12.40
2023-08-29T03:49:56.056Z,12.40
2023-08-29T03:52:27.711Z,12.40
2023-08-29T03:54:55.096Z,12.50
2023-08-29T03:57:23.996Z,12.50
2023-08-29T03:59:50.794Z,12.40
2023-08-29T04:02:17.545Z,12.40
2023-08-29T04:04:45.580Z,12.50
2023-08-29T04:07:12.692Z,12.50
2023-08-29T04:09:40.942Z,12.50
2023-08-29T04:12:09.256Z,12.40
2023-08-29T04:14:39.154Z,12.40
2023-08-29T04:17:05.937Z,12.40
2023-08-29T04:19:32.632Z,12.50
2023-08-29T04:21:59.320Z,12.40
2023-08-29T04:24:26.029Z,12.40
2023-08-29T04:26:54.016Z,12.40
2023-08-29T04:29:20.733Z,12.40
2023-08-29T04:31:48.128Z,12.40
2023-08-29T04:34:15.038Z,12.40
2023-08-29T04:36:41.723Z,12.40
2023-08-29T04:39:08.397Z,12.30
2023-08-29T04:41:35.078Z,12.30
2023-08-29T04:44:01.778Z,12.30
2023-08-29T04:46:28.454Z,12.30
2023-08-29T04:48:55.163Z,12.30
2023-08-29T04:51:21.924Z,12.30
2023-08-29T04:53:48.661Z,12.30
2023-08-29T04:56:15.695Z,12.30
2023-08-29T04:58:42.485Z,12.30
2023-08-29T05:01:09.398Z,12.40
2023-08-29T05:03:36.414Z,12.40
2023-08-29T05:06:03.383Z,12.30
2023-08-29T05:08:30.165Z,12.40
2023-08-29T05:10:57.957Z,12.40
2023-08-29T05:13:24.602Z,12.40
2023-08-29T05:15:52.041Z,12.40
2023-08-29T05:18:18.795Z,12.50
2023-08-29T05:20:45.608Z,12.50
2023-08-29T05:23:12.312Z,12.50
2023-08-29T05:25:40.851Z,12.50
2023-08-29T05:28:07.783Z,12.50
2023-08-29T05:30:36.228Z,12.50
2023-08-29T05:33:03.039Z,12.60
2023-08-29T05:35:29.832Z,12.60
2023-08-29T05:37:56.635Z,12.70
2023-08-29T05:40:23.473Z,12.80
2023-08-29T05:42:50.150Z,12.70
2023-08-29T05:45:17.048Z,12.80
2023-08-29T05:47:43.730Z,12.80
2023-08-29T05:50:11.014Z,12.80
2023-08-29T05:52:37.821Z,12.80
2023-08-29T05:55:05.112Z,12.90
2023-08-29T05:57:31.848Z,12.90
2023-08-29T05:59:58.560Z,13.00
2023-08-29T06:02:25.296Z,13.00
2023-08-29T06:04:52.089Z,13.10
2023-08-29T06:07:18.763Z,13.10
2023-08-29T06:09:45.520Z,13.10
2023-08-29T06:12:12.288Z,13.00
2023-08-29T06:14:38.981Z,13.00
2023-08-29T06:17:06.332Z,13.00
2023-08-29T06:19:33.009Z,12.90
2023-08-29T06:21:59.755Z,12.90
2023-08-29T06:24:26.438Z,13.00
2023-08-29T06:26:53.254Z,12.80
2023-08-29T06:29:20.045Z,12.80
2023-08-29T06:31:46.881Z,12.80
2023-08-29T06:34:13.667Z,12.80
2023-08-29T06:36:40.428Z,12.90
2023-08-29T06:39:07.121Z,13.10
2023-08-29T06:41:33.904Z,13.20
2023-08-29T06:44:00.690Z,13.30
2023-08-29T06:46:27.451Z,13.40
2023-08-29T06:48:54.183Z,13.50
2023-08-29T06:51:20.932Z,13.60
2023-08-29T06:53:47.763Z,13.50
2023-08-29T06:56:14.502Z,13.60
2023-08-29T06:58:41.221Z,13.50
2023-08-29T07:01:08.102Z,13.60
2023-08-29T07:03:34.872Z,13.60
2023-08-29T07:06:01.720Z,13.70
2023-08-29T07:08:28.434Z,13.70
2023-08-29T07:10:55.165Z,13.90
2023-08-29T07:13:21.884Z,14.10
2023-08-29T07:15:48.552Z,14.00
2023-08-29T07:18:15.624Z,14.10
2023-08-29T07:20:42.753Z,14.10
2023-08-29T07:23:09.499Z,14.10
2023-08-29T07:25:37.597Z,14.20
2023-08-29T07:28:04.977Z,14.20
2023-08-29T07:30:31.929Z,14.30
2023-08-29T07:32:58.689Z,14.40
2023-08-29T07:35:25.764Z,14.20
2023-08-29T07:37:53.320Z,14.30
2023-08-29T07:40:20.557Z,14.50
2023-08-29T07:42:47.329Z,14.50
2023-08-29T07:45:14.073Z,14.50
2023-08-29T07:47:40.774Z,14.60
2023-08-29T07:50:07.867Z,14.50
2023-08-29T07:52:35.741Z,14.60
2023-08-29T07:55:02.491Z,14.50
2023-08-29T07:57:29.242Z,14.60
2023-08-29T07:59:55.998Z,14.60
2023-08-29T08:02:22.725Z,14.60
2023-08-29T08:04:49.384Z,14.50
2023-08-29T08:07:16.061Z,14.50
2023-08-29T08:09:43.474Z,14.50
2023-08-29T08:12:10.195Z,14.50
2023-08-29T08:14:36.884Z,14.40
2023-08-29T08:17:03.705Z,14.50
2023-08-29T08:19:30.684Z,14.40
2023-08-29T08:21:57.499Z,14.30
2023-08-29T08:24:24.256Z,14.30
2023-08-29T08:26:50.915Z,14.40
2023-08-29T08:29:17.634Z,14.40
2023-08-29T08:31:44.402Z,14.40
2023-08-29T08:34:12.888Z,14.40
2023-08-29T08:36:39.587Z,14.50
2023-08-29T08:39:06.766Z,14.50
2023-08-29T08:41:34.356Z,14.50
2023-08-29T08:44:05.771Z,14.50
2023-08-29T08:46:34.454Z,14.50
2023-08-29T08:49:02.759Z,14.40
2023-08-29T08:51:31.795Z,14.30
2023-08-29T08:53:59.139Z,14.60
2023-08-29T08:56:26.119Z,14.60
2023-08-29T08:58:52.967Z,14.50
2023-08-29T09:01:19.703Z,14.40
2023-08-29T09:03:46.446Z,14.50
2023-08-29T09:06:16.113Z,14.60
2023-08-29T09:08:43.013Z,14.70
2023-08-29T09:11:09.887Z,14.60
2023-08-29T09:13:45.602Z,14.50
2023-08-29T09:16:12.535Z,14.50
2023-08-29T09:18:42.986Z,14.30
2023-08-29T09:21:17.277Z,14.30
2023-08-29T09:23:44.209Z,14.30
2023-08-29T09:26:13.287Z,14.30
2023-08-29T09:28:41.083Z,14.10
2023-08-29T09:31:12.121Z,14.10
2023-08-29T09:33:40.316Z,14.10
2023-08-29T09:36:07.324Z,14.00
2023-08-29T09:38:35.296Z,14.20
2023-08-29T09:41:02.579Z,14.50
2023-08-29T09:43:30.474Z,14.70
2023-08-29T09:45:59.202Z,14.70
2023-08-29T09:48:26.171Z,14.60
2023-08-29T09:50:52.987Z,14.80
2023-08-29T09:53:21.249Z,14.70
2023-08-29T09:55:56.579Z,14.70
2023-08-29T09:58:25.918Z,14.80
2023-08-29T10:00:53.469Z,14.80
2023-08-29T10:03:21.266Z,15.00
2023-08-29T10:05:49.739Z,15.30
2023-08-29T10:08:26.713Z,15.30
2023-08-29T10:10:57.821Z,15.60
2023-08-29T10:13:25.987Z,15.20
2023-08-29T10:15:53.149Z,15.20
2023-08-29T10:18:21.005Z,15.20
2023-08-29T10:20:49.795Z,15.00
2023-08-29T10:23:18.688Z,15.20
2023-08-29T10:25:46.354Z,15.50
2023-08-29T10:28:14.906Z,15.70
2023-08-29T10:30:52.093Z,16.20
2023-08-29T10:33:20.344Z,16.60
2023-08-29T10:35:50.474Z,16.80
2023-08-29T10:38:18.322Z,16.60
2023-08-29T10:40:46.076Z,16.70
2023-08-29T10:43:23.847Z,16.90
2023-08-29T10:45:55.357Z,17.30
2023-08-29T10:48:44.751Z,17.30
2023-08-29T10:51:13.042Z,17.20
2023-08-29T10:53:50.832Z,17.00
2023-08-29T10:56:22.029Z,16.80
2023-08-29T10:58:49.066Z,16.60
2023-08-29T11:01:37.482Z,16.20
2023-08-29T11:04:16.900Z,16.20
2023-08-29T11:06:56.330Z,16.50
2023-08-29T11:09:24.342Z,16.00
2023-08-29T11:12:09.812Z,16.10
2023-08-29T11:14:52.704Z,16.20
2023-08-29T11:17:28.601Z,16.30
2023-08-29T11:19:57.266Z,16.40
2023-08-29T11:22:27.189Z,16.50
2023-08-29T11:24:57.663Z,16.70
2023-08-29T11:27:26.187Z,17.10
2023-08-29T11:30:05.914Z,17.00
2023-08-29T11:32:38.441Z,16.90
2023-08-29T11:35:05.568Z,17.20
2023-08-29T11:37:32.355Z,17.50
2023-08-29T11:40:02.395Z,18.10
2023-08-29T11:42:48.136Z,18.10
2023-08-29T11:45:44.119Z,18.30
2023-08-29T11:48:05.176Z,18.10
2023-08-29T11:50:32.846Z,18.10
2023-08-29T11:52:59.552Z,18.10
2023-08-29T11:55:26.694Z,17.60
2023-08-29T11:57:54.200Z,17.20
2023-08-29T12:00:25.635Z,17.10
2023-08-29T12:02:52.527Z,17.10
2023-08-29T12:05:21.560Z,17.30
2023-08-29T12:07:52.481Z,17.50
2023-08-29T12:10:20.630Z,17.70
2023-08-29T12:12:47.338Z,17.80
2023-08-29T12:15:27.614Z,17.50
2023-08-29T12:18:05.736Z,17.50
2023-08-29T12:20:34.751Z,17.60
2023-08-29T12:23:01.492Z,17.40
2023-08-29T12:25:28.490Z,17.40
2023-08-29T12:27:55.324Z,17.30
2023-08-29T12:30:22.098Z,17.10
2023-08-29T12:32:49.037Z,16.90
2023-08-29T12:35:17.610Z,17.20
2023-08-29T12:37:44.371Z,17.50
2023-08-29T12:40:13.320Z,17.40
2023-08-29T12:42:41.664Z,17.50
2023-08-29T12:45:09.123Z,17.70
2023-08-29T12:47:37.045Z,18.00
2023-08-29T12:50:04.133Z,17.90
2023-08-29T12:52:30.905Z,17.30
2023-08-29T12:54:57.748Z,17.50
2023-08-29T12:57:24.532Z,17.70
2023-08-29T12:59:51.242Z,17.40
2023-08-29T13:02:17.959Z,17.40
2023-08-29T13:04:44.617Z,17.50
2023-08-29T13:07:11.450Z,17.30
2023-08-29T13:09:39.441Z,17.40
2023-08-29T13:12:08.263Z,17.50
2023-08-29T13:14:39.513Z,17.60
2023-08-29T13:17:07.414Z,17.60
2023-08-29T13:19:34.947Z,17.50
2023-08-29T13:22:05.364Z,17.50
2023-08-29T13:24:32.482Z,17.10
2023-08-29T13:26:59.560Z,17.50
2023-08-29T13:29:27.697Z,17.30
2023-08-29T13:31:54.815Z,17.30
2023-08-29T13:34:21.611Z,17.30
2023-08-29T13:36:48.556Z,17.60
2023-08-29T13:39:15.444Z,18.00
2023-08-29T13:41:43.603Z,18.20
2023-08-29T13:44:13.636Z,18.50
2023-08-29T13:46:42.469Z,18.10
2023-08-29T13:49:10.328Z,18.10
2023-08-29T13:51:37.085Z,18.40
2023-08-29T13:54:04.669Z,18.70
2023-08-29T13:56:31.469Z,18.40
2023-08-29T13:58:59.242Z,18.70
2023-08-29T14:01:26.109Z,18.90
2023-08-29T14:03:52.935Z,18.60
2023-08-29T14:06:19.702Z,18.20
2023-08-29T14:08:49.347Z,18.10
2023-08-29T14:11:16.370Z,18.10
2023-08-29T14:13:43.021Z,18.10
2023-08-29T14:16:09.954Z,18.20
2023-08-29T14:18:36.923Z,18.20
2023-08-29T14:21:03.970Z,18.20
2023-08-29T14:23:30.723Z,18.20
2023-08-29T14:25:58.215Z,18.20
2023-08-29T14:28:25.540Z,17.80
2023-08-29T14:30:52.349Z,17.90
2023-08-29T14:33:19.164Z,17.80
2023-08-29T14:35:45.987Z,17.50
2023-08-29T14:38:14.205Z,17.40
2023-08-29T14:40:41.041Z,17.20
2023-08-29T14:43:07.848Z,17.00
2023-08-29T14:45:40.268Z,17.00
2023-08-29T14:48:08.565Z,16.90
2023-08-29T14:50:35.923Z,17.00
2023-08-29T14:53:02.757Z,17.20
2023-08-29T14:55:29.419Z,17.40
2023-08-29T14:57:59.382Z,17.30
2023-08-29T15:00:26.120Z,17.30
2023-08-29T15:02:55.087Z,17.30
2023-08-29T15:05:21.976Z,17.30
2023-08-29T15:07:48.682Z,17.20
2023-08-29T15:10:15.413Z,17.10
2023-08-29T15:12:42.157Z,17.10
2023-08-29T15:15:09.554Z,17.10
2023-08-29T15:17:36.306Z,17.10
2023-08-29T15:20:08.489Z,17.10
2023-08-29T15:22:35.190Z,17.00
2023-08-29T15:25:01.983Z,17.00
2023-08-29T15:27:28.690Z,17.10
2023-08-29T15:29:55.396Z,17.10
2023-08-29T15:32:22.085Z,17.10
2023-08-29T15:34:48.822Z,17.10
2023-08-29T15:37:15.544Z,17.30
2023-08-29T15:39:44.256Z,17.30
2023-08-29T15:42:11.150Z,17.30
2023-08-29T15:44:38.648Z,17.30
2023-08-29T15:47:05.677Z,17.30
2023-08-29T15:49:32.422Z,17.30
2023-08-29T15:51:59.251Z,17.30
2023-08-29T15:54:27.032Z,17.30
2023-08-29T15:56:53.768Z,17.30
2023-08-29T15:59:21.881Z,17.20
2023-08-29T16:01:48.738Z,16.90
2023-08-29T16:04:15.821Z,16.80
2023-08-29T16:06:42.555Z,16.70
2023-08-29T16:09:09.386Z,16.50
2023-08-29T16:11:36.179Z,16.20
2023-08-29T16:14:02.865Z,16.00
2023-08-29T16:16:29.592Z,15.60
2023-08-29T16:18:56.419Z,15.60
2023-08-29T16:21:23.106Z,15.30
2023-08-29T16:23:49.770Z,15.10
2023-08-29T16:26:17.811Z,15.10
2023-08-29T16:28:45.297Z,15.00
2023-08-29T16:31:12.061Z,14.90
2023-08-29T16:33:38.919Z,14.90
2023-08-29T16:36:06.344Z,14.70
2023-08-29T16:38:33.045Z,14.70
2023-08-29T16:41:00.029Z,14.60
2023-08-29T16:43:27.640Z,14.50
2023-08-29T16:45:54.686Z,14.50
2023-08-29T16:48:21.526Z,14.50
2023-08-29T16:50:49.838Z,14.60
2023-08-29T16:53:17.065Z,14.50
2023-08-29T16:55:44.055Z,14.50
2023-08-29T16:58:11.018Z,14.60
2023-08-29T17:00:38.817Z,14.50
2023-08-29T17:03:11.271Z,14.40
2023-08-29T17:05:39.031Z,14.50
2023-08-29T17:08:07.212Z,14.40
2023-08-29T17:10:34.522Z,14.30
2023-08-29T17:13:01.227Z,14.30
2023-08-29T17:15:27.931Z,14.20
2023-08-29T17:17:54.691Z,14.10
2023-08-29T17:20:21.558Z,14.00
2023-08-29T17:22:49.717Z,14.00
2023-08-29T17:25:16.816Z,13.90
2023-08-29T17:27:44.109Z,13.90
2023-08-29T17:30:12.322Z,13.90
2023-08-29T17:32:39.572Z,13.90
2023-08-29T17:35:06.794Z,13.80
2023-08-29T17:37:35.068Z,13.80
2023-08-29T17:40:02.142Z,13.80
2023-08-29T17:42:28.975Z,13.70
2023-08-29T17:44:56.905Z,13.70
2023-08-29T17:47:23.812Z,13.70
2023-08-29T17:49:51.548Z,13.60
2023-08-29T17:52:18.421Z,13.60
2023-08-29T17:54:45.283Z,13.60
2023-08-29T17:57:12.065Z,13.70
2023-08-29T17:59:41.099Z,13.70
2023-08-29T18:02:07.938Z,13.70
2023-08-29T18:04:34.662Z,13.70
2023-08-29T18:07:01.523Z,13.60
2023-08-29T18:09:28.248Z,13.50
2023-08-29T18:11:54.942Z,13.50
2023-08-29T18:14:21.709Z,13.50
2023-08-29T18:16:50.785Z,13.50
2023-08-29T18:19:17.691Z,13.60
2023-08-29T18:21:44.584Z,13.60
2023-08-29T18:24:13.052Z,13.60
2023-08-29T18:26:40.206Z,13.60
2023-08-29T18:29:07.025Z,13.60
2023-08-29T18:31:33.852Z,13.60
2023-08-29T18:34:00.647Z,13.60
2023-08-29T18:36:27.549Z,13.50
2023-08-29T18:38:56.636Z,13.60
2023-08-29T18:41:23.370Z,13.70
2023-08-29T18:43:50.118Z,13.60
2023-08-29T18:46:18.262Z,13.60
2023-08-29T18:48:45.203Z,13.60
2023-08-29T18:51:11.859Z,13.60
2023-08-29T18:53:39.016Z,13.60
2023-08-29T18:56:05.774Z,13.70
2023-08-29T18:58:35.682Z,13.60
2023-08-29T19:01:04.050Z,13.60
2023-08-29T19:03:30.810Z,13.60
2023-08-29T19:05:57.893Z,13.60
2023-08-29T19:08:24.709Z,13.60
2023-08-29T19:10:51.374Z,13.60
2023-08-29T19:13:18.157Z,13.60
2023-08-29T19:15:44.977Z,13.50
2023-08-29T19:18:14.964Z,13.50
2023-08-29T19:20:41.799Z,13.50
2023-08-29T19:23:08.616Z,13.40
2023-08-29T19:25:35.446Z,13.50
2023-08-29T19:28:02.148Z,13.50
2023-08-29T19:30:29.008Z,13.50
2023-08-29T19:33:01.636Z,13.50
2023-08-29T19:35:31.518Z,13.40
2023-08-29T19:37:58.326Z,13.40
2023-08-29T19:40:25.266Z,13.30
2023-08-29T19:42:51.951Z,13.30
2023-08-29T19:45:18.657Z,13.40
2023-08-29T19:47:45.528Z,13.40
2023-08-29T19:50:12.469Z,13.40
2023-08-29T19:52:39.956Z,13.40
2023-08-29T19:55:07.097Z,13.40
2023-08-29T19:57:34.848Z,13.30
2023-08-29T20:00:01.791Z,13.30
2023-08-29T20:02:28.674Z,13.30
2023-08-29T20:04:55.391Z,13.40
2023-08-29T20:07:22.164Z,13.30
2023-08-29T20:09:48.894Z,13.30
2023-08-29T20:12:15.737Z,13.30
2023-08-29T20:14:42.584Z,13.30
2023-08-29T20:17:09.388Z,13.30
2023-08-29T20:19:37.601Z,13.30
2023-08-29T20:22:04.592Z,13.30
2023-08-29T20:24:31.257Z,13.30
2023-08-29T20:26:58.001Z,13.30
2023-08-29T20:29:24.806Z,13.30
2023-08-29T20:31:51.557Z,13.30
2023-08-29T20:34:18.399Z,13.30
2023-08-29T20:36:48.841Z,13.40
2023-08-29T20:39:16.372Z,13.40
2023-08-29T20:41:43.524Z,13.30
2023-08-29T20:44:10.291Z,13.30
2023-08-29T20:46:37.090Z,13.40
2023-08-29T20:49:03.926Z,13.40
2023-08-29T20:51:30.814Z,13.40
2023-08-29T20:53:57.512Z,13.30
2023-08-29T20:56:27.046Z,13.40
2023-08-29T20:58:53.772Z,13.30
2023-08-29T21:01:21.708Z,13.30
2023-08-29T21:03:48.543Z,13.30
2023-08-29T21:06:15.325Z,13.30
2023-08-29T21:08:42.173Z,13.40
2023-08-29T21:11:09.095Z,13.40
2023-08-29T21:13:36.077Z,13.40
2023-08-29T21:16:03.701Z,13.40
2023-08-29T21:18:31.187Z,13.40
2023-08-29T21:21:02.860Z,13.40
2023-08-29T21:23:30.030Z,13.40
2023-08-29T21:25:56.807Z,13.40
2023-08-29T21:28:26.330Z,13.40
2023-08-29T21:30:54.217Z,13.50
2023-08-29T21:33:22.923Z,13.40
2023-08-29T21:35:51.070Z,13.50
2023-08-29T21:38:18.143Z,13.50
2023-08-29T21:40:46.379Z,13.40
2023-08-29T21:43:19.281Z,13.40
2023-08-29T21:45:56.708Z,13.40
2023-08-29T21:48:25.410Z,13.40
2023-08-29T21:50:53.404Z,13.40
2023-08-29T21:53:20.297Z,13.40
2023-08-29T21:55:47.605Z,13.40
2023-08-29T21:58:17.572Z,13.40
2023-08-29T22:00:54.422Z,13.40
2023-08-29T22:03:25.946Z,13.40
2023-08-29T22:05:53.610Z,13.30
2023-08-29T22:08:21.158Z,13.30
2023-08-29T22:10:48.731Z,13.30
2023-08-29T22:13:15.687Z,13.20
2023-08-29T22:15:42.562Z,13.30
2023-08-29T22:18:10.173Z,13.20
2023-08-29T22:20:37.299Z,13.30
2023-08-29T22:23:04.359Z,13.20
2023-08-29T22:25:31.091Z,13.20
2023-08-29T22:27:57.772Z,13.10
2023-08-29T22:30:25.568Z,13.10
2023-08-29T22:32:55.697Z,13.10
2023-08-29T22:35:22.602Z,13.00
2023-08-29T22:37:49.417Z,12.90
2023-08-29T22:40:16.394Z,12.90
2023-08-29T22:42:43.229Z,12.80
2023-08-29T22:45:10.310Z,12.70
2023-08-29T22:47:37.127Z,12.60
2023-08-29T22:50:03.952Z,12.60
2023-08-29T22:52:30.695Z,12.60
2023-08-29T22:54:57.420Z,12.50
2023-08-29T22:57:24.140Z,12.70
2023-08-29T22:59:50.822Z,12.60
2023-08-29T23:02:17.797Z,12.50
2023-08-29T23:04:44.556Z,12.50
2023-08-29T23:07:12.321Z,12.40
2023-08-29T23:09:39.857Z,12.40
2023-08-29T23:12:07.029Z,12.40
2023-08-29T23:14:34.311Z,12.30
2023-08-29T23:17:01.005Z,12.30
2023-08-29T23:19:28.065Z,12.30
2023-08-29T23:21:55.192Z,12.30
2023-08-29T23:24:22.135Z,12.30
2023-08-29T23:26:49.397Z,12.20
2023-08-29T23:29:16.468Z,12.20
2023-08-29T23:31:43.561Z,12.10
2023-08-29T23:34:10.916Z,12.10
2023-08-29T23:36:37.951Z,12.10
2023-08-29T23:39:07.885Z,12.10
2023-08-29T23:41:35.051Z,12.00
2023-08-29T23:44:01.808Z,11.90
2023-08-29T23:46:28.988Z,11.90
2023-08-29T23:48:55.907Z,11.80
2023-08-29T23:51:23.328Z,11.70
2023-08-29T23:53:51.261Z,11.70
2023-08-29T23:56:18.382Z,11.60
2023-08-29T23:58:45.808Z,11.60
